createdAt,value
2022-10-31T00:00:21.058Z,47.35
2022-10-31T00:00:42.745Z,46.99
2022-10-31T00:01:12.193Z,47.06
2022-10-31T00:01:36.576Z,47.10
2022-10-31T00:01:58.233Z,47.44
2022-10-31T00:02:19.897Z,47.29
2022-10-31T00:02:42.511Z,47.44
2022-10-31T00:03:04.104Z,47.54
2022-10-31T00:03:27.132Z,47.12
2022-10-31T00:03:48.895Z,47.05
2022-10-31T00:04:10.466Z,47.16
2022-10-31T00:04:33.508Z,47.35
2022-10-31T00:04:55.103Z,47.17
2022-10-31T00:05:16.811Z,47.55
2022-10-31T00:05:43.335Z,47.43
2022-10-31T00:06:05.031Z,47.37
2022-10-31T00:06:28.113Z,47.38
2022-10-31T00:06:49.687Z,47.33
2022-10-31T00:07:11.275Z,47.40
2022-10-31T00:07:32.839Z,47.25
2022-10-31T00:07:55.413Z,47.34
2022-10-31T00:08:17.937Z,47.68
2022-10-31T00:08:39.564Z,47.64
2022-10-31T00:09:03.646Z,47.82
2022-10-31T00:09:26.282Z,48.05
2022-10-31T00:09:47.878Z,47.92
2022-10-31T00:10:10.163Z,47.64
2022-10-31T00:10:31.708Z,47.55
2022-10-31T00:10:53.301Z,47.70
2022-10-31T00:11:15.811Z,47.56
2022-10-31T00:11:37.382Z,47.73
2022-10-31T00:11:58.951Z,47.77
2022-10-31T00:12:20.555Z,48.09
2022-10-31T00:12:43.090Z,47.82
2022-10-31T00:13:04.638Z,48.13
2022-10-31T00:13:26.265Z,47.94
2022-10-31T00:13:48.009Z,47.81
2022-10-31T00:14:10.690Z,48.04
2022-10-31T00:14:32.286Z,48.12
2022-10-31T00:14:54.027Z,48.18
2022-10-31T00:15:15.588Z,47.92
2022-10-31T00:15:38.258Z,47.94
2022-10-31T00:16:00.852Z,48.21
2022-10-31T00:16:24.688Z,48.12
2022-10-31T00:16:46.306Z,47.89
2022-10-31T00:17:08.819Z,48.04
2022-10-31T00:17:30.437Z,47.92
2022-10-31T00:17:52.014Z,47.95
2022-10-31T00:18:13.614Z,48.06
2022-10-31T00:18:35.189Z,47.99
2022-10-31T00:18:59.302Z,47.61
2022-10-31T00:19:20.856Z,47.69
2022-10-31T00:19:42.417Z,47.36
2022-10-31T00:20:04.718Z,47.68
2022-10-31T00:20:27.253Z,47.78
2022-10-31T00:20:50.118Z,47.62
2022-10-31T00:21:11.723Z,47.55
2022-10-31T00:21:33.549Z,47.49
2022-10-31T00:21:56.448Z,47.63
2022-10-31T00:22:17.997Z,47.81
2022-10-31T00:22:39.611Z,47.69
2022-10-31T00:23:02.083Z,48.18
2022-10-31T00:23:23.622Z,48.28
2022-10-31T00:23:46.167Z,48.25
2022-10-31T00:24:08.266Z,47.96
2022-10-31T00:24:29.865Z,47.80
2022-10-31T00:24:51.440Z,47.67
2022-10-31T00:25:14.202Z,47.43
2022-10-31T00:25:38.325Z,47.43
2022-10-31T00:26:01.790Z,47.72
2022-10-31T00:26:23.366Z,47.46
2022-10-31T00:26:45.859Z,47.96
2022-10-31T00:27:07.494Z,47.82
2022-10-31T00:27:29.042Z,48.10
2022-10-31T00:27:50.777Z,47.90
2022-10-31T00:28:12.972Z,47.92
2022-10-31T00:28:35.861Z,47.91
2022-10-31T00:28:57.952Z,47.83
2022-10-31T00:29:19.562Z,47.91
2022-10-31T00:29:41.168Z,47.99
2022-10-31T00:30:04.205Z,48.03
2022-10-31T00:30:25.908Z,48.08
2022-10-31T00:30:47.564Z,48.07
2022-10-31T00:31:11.074Z,48.20
2022-10-31T00:31:33.823Z,48.10
2022-10-31T00:31:55.935Z,48.02
2022-10-31T00:32:17.560Z,48.62
2022-10-31T00:32:39.183Z,48.61
2022-10-31T00:33:02.124Z,48.36
2022-10-31T00:33:24.879Z,48.33
2022-10-31T00:33:46.825Z,48.37
2022-10-31T00:34:08.430Z,48.66
2022-10-31T00:34:31.375Z,48.60
2022-10-31T00:34:56.168Z,48.61
2022-10-31T00:35:18.284Z,48.51
2022-10-31T00:35:40.350Z,48.67
2022-10-31T00:36:03.706Z,48.25
2022-10-31T00:36:26.228Z,48.17
2022-10-31T00:36:48.044Z,48.04
2022-10-31T00:37:09.689Z,48.22
2022-10-31T00:37:31.333Z,48.46
2022-10-31T00:37:54.400Z,48.14
2022-10-31T00:38:17.124Z,48.33
2022-10-31T00:38:38.700Z,48.30
2022-10-31T00:39:00.482Z,48.27
2022-10-31T00:39:22.068Z,48.11
2022-10-31T00:39:46.071Z,48.27
2022-10-31T00:40:09.034Z,48.08
2022-10-31T00:40:30.639Z,47.89
2022-10-31T00:40:52.231Z,47.88
2022-10-31T00:41:16.930Z,47.94
2022-10-31T00:41:38.501Z,47.71
2022-10-31T00:42:05.538Z,47.66
2022-10-31T00:42:27.163Z,48.07
2022-10-31T00:42:49.772Z,47.84
2022-10-31T00:43:38.097Z,48.16
2022-10-31T00:43:59.671Z,48.08
2022-10-31T00:44:22.210Z,48.47
2022-10-31T00:44:43.808Z,47.84
2022-10-31T00:45:06.058Z,47.68
2022-10-31T00:45:27.692Z,47.88
2022-10-31T00:45:50.302Z,47.97
2022-10-31T00:46:13.037Z,47.81
2022-10-31T00:46:34.632Z,47.99
2022-10-31T00:46:56.216Z,48.01
2022-10-31T00:47:17.815Z,47.80
2022-10-31T00:47:41.507Z,47.47
2022-10-31T00:48:03.560Z,47.42
2022-10-31T00:48:25.807Z,47.68
2022-10-31T00:48:48.213Z,47.55
2022-10-31T00:49:10.795Z,47.57
2022-10-31T00:49:32.366Z,47.61
2022-10-31T00:49:53.912Z,47.89
2022-10-31T00:50:15.790Z,47.64
2022-10-31T00:50:38.970Z,47.76
2022-10-31T00:51:00.676Z,47.83
2022-10-31T00:51:23.650Z,48.09
2022-10-31T00:51:45.221Z,48.15
2022-10-31T00:52:07.982Z,47.74
2022-10-31T00:52:29.575Z,48.12
2022-10-31T00:52:51.780Z,47.84
2022-10-31T00:53:13.910Z,48.31
2022-10-31T00:53:35.776Z,48.23
2022-10-31T00:53:58.730Z,47.77
2022-10-31T00:54:20.286Z,47.90
2022-10-31T00:54:43.099Z,48.10
2022-10-31T00:55:05.267Z,48.22
2022-10-31T00:55:27.087Z,47.90
2022-10-31T00:55:49.905Z,48.10
2022-10-31T00:56:11.508Z,47.84
2022-10-31T00:56:33.078Z,47.80
2022-10-31T00:56:55.504Z,47.90
2022-10-31T00:57:18.042Z,48.01
2022-10-31T00:57:39.633Z,47.64
2022-10-31T00:58:01.667Z,47.87
2022-10-31T00:58:23.613Z,47.62
2022-10-31T00:58:46.234Z,47.59
2022-10-31T00:59:07.842Z,47.82
2022-10-31T00:59:30.581Z,47.42
2022-10-31T00:59:52.156Z,47.91
2022-10-31T01:00:14.688Z,47.83
2022-10-31T01:00:37.606Z,47.61
2022-10-31T01:00:59.277Z,47.77
2022-10-31T01:01:22.469Z,47.83
2022-10-31T01:01:44.859Z,47.49
2022-10-31T01:02:07.687Z,47.66
2022-10-31T01:02:29.753Z,47.77
2022-10-31T01:02:51.417Z,47.50
2022-10-31T01:03:13.255Z,47.52
2022-10-31T01:03:39.472Z,47.53
2022-10-31T01:04:05.015Z,47.80
2022-10-31T01:04:28.436Z,47.68
2022-10-31T01:04:51.702Z,47.58
2022-10-31T01:05:14.787Z,47.69
2022-10-31T01:05:36.320Z,47.57
2022-10-31T01:06:00.147Z,47.54
2022-10-31T01:06:24.312Z,47.63
2022-10-31T01:06:45.899Z,47.79
2022-10-31T01:07:07.882Z,47.39
2022-10-31T01:07:29.514Z,47.68
2022-10-31T01:07:51.278Z,47.44
2022-10-31T01:08:13.848Z,47.71
2022-10-31T01:08:39.368Z,47.72
2022-10-31T01:09:01.027Z,47.49
2022-10-31T01:09:23.963Z,47.65
2022-10-31T01:09:45.567Z,47.19
2022-10-31T01:10:08.375Z,47.28
2022-10-31T01:10:30.021Z,47.60
2022-10-31T01:11:00.463Z,47.47
2022-10-31T01:11:24.734Z,47.96
2022-10-31T01:11:46.585Z,47.78
2022-10-31T01:12:08.408Z,48.15
2022-10-31T01:12:30.064Z,47.81
2022-10-31T01:12:53.578Z,47.61
2022-10-31T01:13:17.628Z,48.02
2022-10-31T01:13:40.686Z,47.97
2022-10-31T01:14:02.261Z,47.92
2022-10-31T01:14:26.520Z,47.73
2022-10-31T01:14:49.812Z,47.85
2022-10-31T01:15:16.638Z,47.83
2022-10-31T01:15:38.237Z,47.60
2022-10-31T01:16:05.883Z,48.06
2022-10-31T01:16:30.613Z,47.98
2022-10-31T01:16:52.993Z,47.80
2022-10-31T01:17:22.443Z,47.89
2022-10-31T01:17:44.567Z,47.84
2022-10-31T01:18:07.308Z,47.69
2022-10-31T01:18:33.345Z,47.88
2022-10-31T01:18:58.849Z,47.98
2022-10-31T01:19:27.834Z,47.75
2022-10-31T01:19:55.925Z,47.85
2022-10-31T01:20:25.443Z,47.73
2022-10-31T01:20:59.364Z,47.81
2022-10-31T01:21:24.703Z,47.54
2022-10-31T01:21:46.298Z,47.45
2022-10-31T01:22:08.010Z,47.81
2022-10-31T01:22:29.578Z,47.42
2022-10-31T01:22:54.056Z,47.84
2022-10-31T01:23:16.529Z,47.57
2022-10-31T01:23:39.365Z,47.54
2022-10-31T01:24:02.891Z,47.71
2022-10-31T01:24:24.897Z,47.57
2022-10-31T01:24:46.500Z,47.45
2022-10-31T01:25:10.870Z,47.64
2022-10-31T01:25:32.482Z,47.80
2022-10-31T01:26:06.140Z,47.75
2022-10-31T01:26:31.572Z,47.50
2022-10-31T01:26:53.175Z,47.73
2022-10-31T01:27:14.902Z,47.72
2022-10-31T01:27:36.562Z,47.68
2022-10-31T01:27:58.497Z,47.46
2022-10-31T01:28:21.278Z,47.68
2022-10-31T01:28:48.648Z,47.57
2022-10-31T01:29:55.526Z,47.89
2022-10-31T01:30:17.382Z,48.11
2022-10-31T01:30:38.930Z,48.06
2022-10-31T01:31:05.039Z,48.26
2022-10-31T01:31:29.701Z,48.24
2022-10-31T01:31:51.405Z,48.20
2022-10-31T01:32:13.015Z,47.94
2022-10-31T01:32:34.853Z,48.04
2022-10-31T01:32:59.312Z,48.02
2022-10-31T01:33:21.213Z,48.15
2022-10-31T01:33:42.921Z,48.32
2022-10-31T01:34:04.863Z,48.50
2022-10-31T01:34:27.701Z,48.15
2022-10-31T01:34:49.838Z,48.37
2022-10-31T01:35:11.648Z,47.97
2022-10-31T01:35:33.328Z,48.17
2022-10-31T01:35:54.931Z,48.19
2022-10-31T01:36:19.751Z,48.08
2022-10-31T01:36:43.880Z,48.05
2022-10-31T01:37:05.438Z,48.01
2022-10-31T01:37:27.531Z,48.00
2022-10-31T01:37:50.178Z,48.30
2022-10-31T01:38:11.843Z,48.35
2022-10-31T01:38:33.408Z,47.85
2022-10-31T01:38:57.988Z,47.97
2022-10-31T01:39:20.139Z,47.93
2022-10-31T01:39:42.824Z,48.00
2022-10-31T01:40:05.521Z,47.52
2022-10-31T01:40:30.187Z,47.84
2022-10-31T01:40:52.087Z,47.45
2022-10-31T01:41:16.165Z,47.62
2022-10-31T01:41:41.396Z,47.58
2022-10-31T01:42:03.773Z,47.58
2022-10-31T01:42:27.754Z,47.54
2022-10-31T01:42:50.263Z,47.40
2022-10-31T01:43:14.115Z,47.12
2022-10-31T01:43:48.746Z,47.70
2022-10-31T01:44:48.872Z,47.44
2022-10-31T01:45:11.176Z,47.41
2022-10-31T01:45:32.930Z,47.87
2022-10-31T01:45:55.613Z,47.68
2022-10-31T01:46:21.650Z,47.89
2022-10-31T01:46:47.730Z,47.75
2022-10-31T01:47:16.470Z,47.83
2022-10-31T01:47:44.289Z,47.81
2022-10-31T01:48:07.223Z,47.68
2022-10-31T01:48:29.127Z,47.87
2022-10-31T01:48:52.052Z,47.55
2022-10-31T01:49:17.866Z,47.60
2022-10-31T01:49:44.408Z,47.58
2022-10-31T01:50:14.767Z,47.58
2022-10-31T01:50:39.265Z,47.46
2022-10-31T01:51:01.313Z,47.43
2022-10-31T01:51:26.890Z,47.43
2022-10-31T01:51:56.079Z,47.64
2022-10-31T01:52:25.153Z,47.53
2022-10-31T01:52:50.511Z,47.96
2022-10-31T01:53:14.529Z,47.80
2022-10-31T01:53:37.136Z,47.57
2022-10-31T01:54:02.695Z,47.69
2022-10-31T01:54:28.440Z,47.73
2022-10-31T01:54:53.881Z,47.65
2022-10-31T01:55:23.190Z,47.83
2022-10-31T01:55:47.899Z,47.72
2022-10-31T01:56:12.574Z,47.71
2022-10-31T01:56:39.286Z,47.64
2022-10-31T01:57:03.594Z,47.97
2022-10-31T01:57:26.767Z,47.95
2022-10-31T01:57:52.739Z,47.97
2022-10-31T01:58:20.254Z,48.04
2022-10-31T01:58:43.023Z,48.02
2022-10-31T01:59:07.504Z,48.05
2022-10-31T01:59:33.762Z,48.29
2022-10-31T02:00:01.419Z,47.90
2022-10-31T02:00:23.339Z,48.37
2022-10-31T02:00:50.013Z,48.42
2022-10-31T02:01:13.232Z,48.09
2022-10-31T02:01:36.212Z,48.09
2022-10-31T02:01:58.060Z,48.09
2022-10-31T02:02:20.409Z,48.26
2022-10-31T02:02:43.261Z,48.40
2022-10-31T02:03:06.373Z,48.05
2022-10-31T02:03:30.164Z,48.29
2022-10-31T02:03:52.276Z,48.12
2022-10-31T02:04:18.067Z,48.37
2022-10-31T02:04:42.031Z,48.14
2022-10-31T02:05:07.437Z,47.94
2022-10-31T02:05:31.288Z,47.98
2022-10-31T02:05:55.352Z,47.91
2022-10-31T02:06:28.645Z,48.05
2022-10-31T02:06:57.323Z,47.97
2022-10-31T02:07:24.725Z,48.02
2022-10-31T02:07:52.791Z,48.30
2022-10-31T02:08:21.283Z,48.20
2022-10-31T02:08:45.349Z,47.98
2022-10-31T02:09:07.675Z,48.21
2022-10-31T02:09:31.656Z,48.13
2022-10-31T02:09:55.716Z,48.27
2022-10-31T02:10:20.061Z,48.32
2022-10-31T02:10:44.143Z,48.24
2022-10-31T02:11:07.275Z,48.35
2022-10-31T02:11:31.258Z,48.36
2022-10-31T02:11:55.602Z,47.96
2022-10-31T02:12:18.464Z,48.00
2022-10-31T02:12:41.683Z,48.04
2022-10-31T02:13:05.446Z,48.50
2022-10-31T02:13:30.355Z,48.34
2022-10-31T02:13:52.252Z,48.69
2022-10-31T02:14:14.429Z,48.47
2022-10-31T02:14:37.265Z,48.86
2022-10-31T02:15:00.358Z,48.79
2022-10-31T02:15:22.983Z,48.57
2022-10-31T02:15:46.741Z,48.59
2022-10-31T02:16:10.794Z,48.76
2022-10-31T02:16:32.393Z,48.89
2022-10-31T02:16:55.290Z,48.51
2022-10-31T02:17:16.948Z,48.79
2022-10-31T02:17:38.641Z,48.59
2022-10-31T02:18:01.172Z,48.70
2022-10-31T02:18:26.138Z,48.59
2022-10-31T02:18:47.910Z,48.67
2022-10-31T02:19:13.221Z,48.87
2022-10-31T02:19:42.901Z,48.75
2022-10-31T02:20:15.390Z,48.70
2022-10-31T02:20:46.762Z,48.74
2022-10-31T02:21:16.090Z,49.06
2022-10-31T02:21:52.090Z,49.02
2022-10-31T02:22:28.389Z,48.81
2022-10-31T02:23:22.935Z,48.92
2022-10-31T02:24:18.122Z,48.95
2022-10-31T02:24:49.554Z,48.56
2022-10-31T02:25:34.156Z,49.01
2022-10-31T02:26:19.064Z,48.42
2022-10-31T02:27:24.119Z,48.44
2022-10-31T02:28:13.476Z,48.58
2022-10-31T02:29:08.740Z,48.52
2022-10-31T02:30:10.512Z,48.32
2022-10-31T02:30:46.172Z,48.54
2022-10-31T02:31:28.110Z,48.39
2022-10-31T02:32:01.590Z,48.34
2022-10-31T02:32:28.587Z,48.60
2022-10-31T02:33:01.348Z,48.31
2022-10-31T02:33:32.293Z,48.44
2022-10-31T02:33:58.726Z,48.18
2022-10-31T02:34:26.789Z,48.73
2022-10-31T02:34:56.801Z,48.67
2022-10-31T02:35:33.162Z,48.87
2022-10-31T02:36:04.900Z,48.63
2022-10-31T02:36:34.826Z,48.89
2022-10-31T02:37:01.122Z,48.37
2022-10-31T02:37:29.036Z,48.48
2022-10-31T02:37:59.490Z,48.77
2022-10-31T02:38:32.370Z,48.29
2022-10-31T02:39:08.872Z,48.09
2022-10-31T02:39:43.888Z,48.15
2022-10-31T02:40:18.445Z,48.26
2022-10-31T02:41:07.675Z,48.28
2022-10-31T02:41:41.585Z,48.01
2022-10-31T02:42:12.154Z,48.23
2022-10-31T02:42:41.227Z,47.93
2022-10-31T02:43:08.844Z,47.86
2022-10-31T02:43:37.328Z,48.19
2022-10-31T02:44:06.623Z,47.99
2022-10-31T02:44:37.568Z,48.20
2022-10-31T02:45:06.548Z,48.18
2022-10-31T02:45:32.337Z,48.12
2022-10-31T02:46:00.260Z,48.11
2022-10-31T02:46:33.070Z,48.21
2022-10-31T02:47:00.364Z,48.14
2022-10-31T02:47:26.785Z,48.16
2022-10-31T02:47:51.059Z,47.88
2022-10-31T02:48:20.187Z,48.29
2022-10-31T02:48:45.375Z,47.82
2022-10-31T02:49:12.722Z,48.06
2022-10-31T02:49:40.226Z,48.41
2022-10-31T02:50:05.513Z,48.05
2022-10-31T02:50:30.875Z,48.15
2022-10-31T02:50:56.748Z,48.44
2022-10-31T02:51:19.907Z,48.49
2022-10-31T02:51:44.762Z,48.17
2022-10-31T02:52:15.106Z,48.27
2022-10-31T02:52:37.003Z,48.36
2022-10-31T02:53:05.774Z,48.62
2022-10-31T02:53:37.153Z,48.66
2022-10-31T02:54:00.427Z,48.95
2022-10-31T02:54:26.535Z,49.02
2022-10-31T02:55:10.395Z,48.98
2022-10-31T02:56:00.547Z,48.82
2022-10-31T02:56:26.586Z,48.88
2022-10-31T02:56:51.336Z,49.15
2022-10-31T02:57:30.975Z,49.17
2022-10-31T02:57:59.765Z,48.97
2022-10-31T02:58:29.058Z,48.91
2022-10-31T02:59:01.088Z,49.05
2022-10-31T02:59:27.802Z,48.74
2022-10-31T02:59:58.544Z,48.94
2022-10-31T03:00:22.278Z,48.63
2022-10-31T03:02:13.634Z,48.66
2022-10-31T03:03:04.228Z,48.96
2022-10-31T03:03:34.936Z,48.91
2022-10-31T03:04:24.678Z,48.68
2022-10-31T03:05:03.123Z,48.69
2022-10-31T03:05:36.450Z,48.92
2022-10-31T03:06:05.441Z,48.71
2022-10-31T03:06:31.751Z,48.79
2022-10-31T03:06:57.965Z,49.16
2022-10-31T03:07:29.924Z,48.54
2022-10-31T03:08:01.986Z,48.61
2022-10-31T03:08:30.944Z,48.82
2022-10-31T03:09:04.149Z,48.72
2022-10-31T03:09:32.467Z,48.77
2022-10-31T03:10:04.756Z,48.78
2022-10-31T03:10:35.798Z,49.25
2022-10-31T03:11:00.211Z,48.77
2022-10-31T03:11:30.326Z,48.77
2022-10-31T03:11:59.179Z,48.98
2022-10-31T03:12:27.503Z,48.91
2022-10-31T03:13:02.295Z,48.91
2022-10-31T03:13:33.661Z,48.88
2022-10-31T03:14:00.450Z,48.48
2022-10-31T03:14:27.800Z,48.41
2022-10-31T03:14:58.844Z,48.70
2022-10-31T03:15:25.056Z,48.49
2022-10-31T03:15:51.295Z,48.80
2022-10-31T03:16:16.956Z,48.68
2022-10-31T03:16:48.111Z,48.75
2022-10-31T03:17:19.622Z,48.66
2022-10-31T03:17:51.644Z,48.54
2022-10-31T03:18:17.974Z,48.37
2022-10-31T03:18:42.938Z,48.79
2022-10-31T03:19:09.155Z,48.35
2022-10-31T03:19:33.965Z,48.63
2022-10-31T03:20:00.211Z,48.55
2022-10-31T03:20:26.657Z,48.56
2022-10-31T03:20:55.452Z,48.29
2022-10-31T03:21:22.452Z,48.49
2022-10-31T03:21:47.099Z,48.13
2022-10-31T03:22:16.311Z,48.45
2022-10-31T03:22:43.863Z,48.14
2022-10-31T03:23:09.359Z,48.19
2022-10-31T03:23:32.947Z,48.43
2022-10-31T03:23:57.683Z,48.38
2022-10-31T03:24:23.398Z,48.09
2022-10-31T03:24:47.654Z,48.12
2022-10-31T03:25:10.675Z,48.23
2022-10-31T03:25:33.938Z,48.40
2022-10-31T03:25:56.773Z,48.27
2022-10-31T03:26:23.008Z,48.25
2022-10-31T03:26:50.611Z,48.28
2022-10-31T03:27:15.858Z,48.37
2022-10-31T03:27:42.191Z,48.45
2022-10-31T03:28:06.993Z,48.18
2022-10-31T03:28:34.812Z,48.21
2022-10-31T03:29:05.861Z,48.38
2022-10-31T03:29:32.303Z,48.02
2022-10-31T03:29:57.026Z,48.19
2022-10-31T03:30:18.849Z,48.16
2022-10-31T03:30:54.089Z,48.17
2022-10-31T03:31:19.238Z,48.13
2022-10-31T03:31:49.921Z,47.80
2022-10-31T03:32:15.357Z,48.05
2022-10-31T03:32:43.986Z,48.07
2022-10-31T03:33:09.860Z,48.09
2022-10-31T03:33:36.661Z,47.75
2022-10-31T03:34:02.329Z,48.16
2022-10-31T03:34:25.138Z,48.09
2022-10-31T03:34:48.311Z,48.11
2022-10-31T03:35:14.254Z,48.24
2022-10-31T03:35:37.468Z,48.04
2022-10-31T03:36:05.458Z,48.40
2022-10-31T03:36:29.110Z,48.08
2022-10-31T03:36:56.141Z,48.45
2022-10-31T03:37:20.210Z,48.53
2022-10-31T03:37:44.400Z,48.57
2022-10-31T03:38:10.390Z,48.08
2022-10-31T03:38:33.299Z,48.12
2022-10-31T03:38:57.723Z,48.43
2022-10-31T03:39:23.514Z,48.35
2022-10-31T03:39:49.269Z,48.37
2022-10-31T03:40:15.358Z,48.39
2022-10-31T03:40:40.637Z,48.07
2022-10-31T03:41:07.568Z,47.96
2022-10-31T03:41:33.961Z,47.91
2022-10-31T03:41:58.458Z,48.13
2022-10-31T03:42:24.752Z,48.25
2022-10-31T03:42:55.342Z,48.25
2022-10-31T03:43:53.735Z,47.88
2022-10-31T03:44:19.860Z,48.11
2022-10-31T03:44:54.589Z,47.88
2022-10-31T03:45:21.768Z,47.74
2022-10-31T03:45:47.609Z,48.02
2022-10-31T03:46:10.662Z,48.16
2022-10-31T03:46:32.413Z,47.84
2022-10-31T03:46:56.005Z,47.93
2022-10-31T03:47:17.928Z,47.60
2022-10-31T03:47:45.994Z,47.61
2022-10-31T03:48:07.806Z,47.74
2022-10-31T03:48:29.959Z,48.09
2022-10-31T03:48:51.858Z,48.35
2022-10-31T03:49:16.854Z,48.22
2022-10-31T03:49:39.476Z,47.99
2022-10-31T03:50:01.261Z,48.16
2022-10-31T03:50:26.668Z,48.45
2022-10-31T03:51:00.568Z,48.08
2022-10-31T03:51:27.743Z,48.16
2022-10-31T03:51:55.898Z,47.95
2022-10-31T03:52:26.418Z,48.45
2022-10-31T03:52:53.479Z,48.18
2022-10-31T03:53:22.145Z,47.92
2022-10-31T03:53:48.674Z,47.90
2022-10-31T03:54:21.985Z,48.26
2022-10-31T03:54:46.059Z,48.17
2022-10-31T03:55:13.835Z,47.79
2022-10-31T03:55:41.967Z,47.85
2022-10-31T03:56:11.912Z,47.68
2022-10-31T03:56:38.476Z,48.08
2022-10-31T03:57:07.802Z,47.85
2022-10-31T03:57:37.558Z,47.49
2022-10-31T03:58:05.029Z,47.77
2022-10-31T03:58:32.183Z,47.94
2022-10-31T03:59:01.115Z,47.79
2022-10-31T03:59:29.124Z,47.71
2022-10-31T03:59:54.186Z,48.00
2022-10-31T04:00:17.603Z,47.58
2022-10-31T04:00:45.483Z,47.80
2022-10-31T04:01:10.858Z,48.13
2022-10-31T04:01:38.309Z,48.19
2022-10-31T04:02:06.422Z,47.99
2022-10-31T04:02:33.157Z,48.21
2022-10-31T04:03:03.263Z,48.17
2022-10-31T04:03:30.374Z,47.96
2022-10-31T04:03:56.630Z,48.39
2022-10-31T04:04:20.979Z,48.06
2022-10-31T04:04:45.229Z,47.85
2022-10-31T04:05:09.973Z,47.84
2022-10-31T04:05:33.112Z,47.82
2022-10-31T04:06:01.997Z,47.61
2022-10-31T04:06:26.256Z,47.67
2022-10-31T04:06:51.625Z,47.83
2022-10-31T04:07:15.452Z,47.83
2022-10-31T04:07:40.992Z,47.77
2022-10-31T04:08:06.931Z,47.67
2022-10-31T04:08:32.642Z,47.61
2022-10-31T04:08:58.410Z,47.83
2022-10-31T04:09:22.632Z,47.96
2022-10-31T04:09:47.358Z,47.67
2022-10-31T04:10:13.300Z,48.06
2022-10-31T04:10:39.712Z,47.87
2022-10-31T04:11:03.571Z,48.21
2022-10-31T04:11:32.047Z,47.84
2022-10-31T04:12:17.198Z,48.07
2022-10-31T04:12:58.876Z,47.91
2022-10-31T04:13:29.822Z,48.40
2022-10-31T04:14:01.392Z,48.27
2022-10-31T04:14:27.135Z,48.28
2022-10-31T04:14:51.489Z,48.36
2022-10-31T04:15:14.126Z,48.09
2022-10-31T04:15:37.674Z,48.36
2022-10-31T04:15:59.786Z,48.36
2022-10-31T04:16:24.472Z,48.28
2022-10-31T04:16:46.696Z,48.29
2022-10-31T04:17:13.961Z,48.33
2022-10-31T04:17:41.840Z,48.31
2022-10-31T04:18:07.069Z,48.42
2022-10-31T04:18:28.668Z,47.97
2022-10-31T04:18:50.456Z,48.32
2022-10-31T04:19:12.844Z,48.26
2022-10-31T04:19:36.297Z,48.06
2022-10-31T04:20:00.275Z,48.33
2022-10-31T04:20:31.291Z,47.90
2022-10-31T04:21:02.117Z,48.10
2022-10-31T04:21:30.146Z,47.75
2022-10-31T04:21:52.438Z,47.73
2022-10-31T04:22:14.488Z,48.11
2022-10-31T04:22:37.149Z,48.15
2022-10-31T04:22:58.890Z,48.10
2022-10-31T04:23:23.288Z,48.25
2022-10-31T04:23:46.476Z,48.10
2022-10-31T04:24:17.709Z,48.03
2022-10-31T04:24:40.911Z,47.92
2022-10-31T04:25:04.361Z,47.78
2022-10-31T04:25:25.922Z,48.23
2022-10-31T04:25:50.447Z,48.11
2022-10-31T04:26:13.847Z,47.91
2022-10-31T04:26:38.833Z,47.86
2022-10-31T04:27:00.427Z,47.55
2022-10-31T04:27:24.902Z,47.61
2022-10-31T04:27:47.651Z,47.97
2022-10-31T04:28:09.282Z,47.68
2022-10-31T04:28:31.060Z,47.32
2022-10-31T04:28:52.765Z,47.49
2022-10-31T04:29:14.366Z,47.73
2022-10-31T04:29:37.015Z,47.53
2022-10-31T04:29:58.619Z,47.62
2022-10-31T04:30:20.212Z,47.33
2022-10-31T04:30:41.886Z,47.11
2022-10-31T04:31:04.548Z,46.94
2022-10-31T04:31:26.724Z,47.16
2022-10-31T04:31:48.326Z,47.78
2022-10-31T04:32:11.358Z,47.51
2022-10-31T04:32:34.117Z,47.50
2022-10-31T04:32:56.011Z,47.61
2022-10-31T04:33:17.830Z,47.57
2022-10-31T04:33:41.520Z,47.72
2022-10-31T04:34:03.784Z,48.18
2022-10-31T04:34:25.524Z,47.71
2022-10-31T04:34:48.155Z,48.04
2022-10-31T04:35:09.703Z,47.87
2022-10-31T04:35:31.297Z,48.00
2022-10-31T04:35:52.871Z,48.04
2022-10-31T04:36:15.499Z,47.60
2022-10-31T04:36:37.702Z,47.88
2022-10-31T04:36:59.257Z,47.81
2022-10-31T04:37:20.858Z,47.55
2022-10-31T04:37:43.390Z,47.74
2022-10-31T04:38:04.993Z,47.57
2022-10-31T04:38:28.835Z,47.44
2022-10-31T04:38:50.583Z,47.76
2022-10-31T04:39:27.107Z,47.39
2022-10-31T04:40:22.088Z,47.67
2022-10-31T04:40:53.352Z,47.37
2022-10-31T04:41:33.267Z,47.40
2022-10-31T04:41:57.676Z,47.79
2022-10-31T04:42:20.800Z,47.43
2022-10-31T04:42:42.425Z,47.64
2022-10-31T04:43:04.924Z,47.78
2022-10-31T04:43:27.316Z,47.57
2022-10-31T04:43:49.936Z,47.77
2022-10-31T04:44:12.116Z,47.37
2022-10-31T04:44:33.684Z,47.73
2022-10-31T04:44:56.573Z,47.45
2022-10-31T04:45:21.313Z,47.46
2022-10-31T04:45:46.047Z,47.77
2022-10-31T04:46:08.541Z,47.47
2022-10-31T04:46:30.843Z,47.79
2022-10-31T04:46:54.597Z,47.71
2022-10-31T04:47:17.487Z,47.88
2022-10-31T04:47:39.287Z,47.88
2022-10-31T04:48:02.051Z,47.83
2022-10-31T04:48:27.615Z,47.84
2022-10-31T04:48:49.628Z,48.10
2022-10-31T04:49:12.065Z,48.45
2022-10-31T04:49:33.619Z,47.94
2022-10-31T04:49:56.133Z,47.82
2022-10-31T04:50:17.898Z,48.21
2022-10-31T04:50:40.570Z,48.22
2022-10-31T04:51:03.365Z,48.16
2022-10-31T04:51:25.963Z,47.98
2022-10-31T04:51:47.936Z,47.77
2022-10-31T04:52:09.549Z,47.88
2022-10-31T04:52:31.215Z,47.66
2022-10-31T04:52:52.796Z,47.61
2022-10-31T04:53:20.752Z,47.38
2022-10-31T04:54:00.834Z,47.53
2022-10-31T04:54:32.155Z,47.39
2022-10-31T04:55:14.222Z,47.29
2022-10-31T04:55:59.835Z,47.08
2022-10-31T04:56:28.687Z,47.38
2022-10-31T04:56:55.723Z,47.44
2022-10-31T04:57:18.155Z,47.24
2022-10-31T04:57:44.265Z,47.45
2022-10-31T04:58:06.152Z,47.43
2022-10-31T04:58:28.859Z,47.34
2022-10-31T04:58:50.492Z,47.50
2022-10-31T04:59:13.910Z,47.46
2022-10-31T04:59:43.124Z,47.23
2022-10-31T05:00:06.682Z,47.55
2022-10-31T05:00:30.192Z,47.55
2022-10-31T05:00:54.071Z,47.44
2022-10-31T05:01:16.370Z,47.58
2022-10-31T05:01:38.438Z,47.65
2022-10-31T05:02:00.344Z,47.66
2022-10-31T05:02:50.732Z,47.73
2022-10-31T05:03:12.327Z,47.87
2022-10-31T05:03:34.215Z,47.81
2022-10-31T05:03:55.834Z,47.48
2022-10-31T05:04:18.377Z,47.76
2022-10-31T05:04:40.025Z,47.93
2022-10-31T05:05:04.391Z,47.86
2022-10-31T05:05:28.283Z,48.21
2022-10-31T05:05:50.911Z,48.12
2022-10-31T05:06:12.486Z,48.45
2022-10-31T05:06:36.560Z,48.08
2022-10-31T05:06:58.124Z,48.50
2022-10-31T05:07:21.481Z,48.11
2022-10-31T05:07:44.241Z,48.47
2022-10-31T05:08:06.279Z,48.26
2022-10-31T05:08:27.944Z,48.11
2022-10-31T05:08:51.596Z,48.01
2022-10-31T05:09:13.226Z,48.17
2022-10-31T05:09:34.984Z,48.21
2022-10-31T05:09:56.540Z,48.35
2022-10-31T05:10:21.842Z,48.13
2022-10-31T05:10:44.938Z,47.79
2022-10-31T05:11:06.591Z,48.00
2022-10-31T05:11:28.985Z,48.17
2022-10-31T05:11:58.772Z,47.99
2022-10-31T05:12:47.778Z,48.09
2022-10-31T05:13:28.760Z,47.90
2022-10-31T05:14:16.743Z,47.79
2022-10-31T05:15:06.614Z,47.67
2022-10-31T05:15:57.301Z,47.20
2022-10-31T05:16:42.723Z,47.22
2022-10-31T05:17:33.347Z,47.52
2022-10-31T05:18:26.264Z,47.28
2022-10-31T05:19:10.897Z,47.80
2022-10-31T05:19:52.433Z,47.67
2022-10-31T05:20:40.649Z,47.84
2022-10-31T05:21:12.571Z,47.61
2022-10-31T05:21:39.838Z,47.67
2022-10-31T05:22:02.674Z,47.97
2022-10-31T05:22:24.635Z,47.81
2022-10-31T05:22:48.906Z,47.80
2022-10-31T05:23:10.658Z,48.21
2022-10-31T05:23:32.297Z,48.08
2022-10-31T05:23:54.951Z,48.15
2022-10-31T05:24:22.563Z,48.25
2022-10-31T05:24:44.163Z,47.86
2022-10-31T05:25:06.560Z,48.03
2022-10-31T05:25:29.863Z,48.13
2022-10-31T05:25:52.392Z,48.00
2022-10-31T05:26:14.502Z,48.23
2022-10-31T05:26:36.124Z,47.82
2022-10-31T05:26:57.696Z,47.93
2022-10-31T05:27:19.355Z,47.86
2022-10-31T05:27:42.400Z,47.83
2022-10-31T05:28:04.523Z,48.01
2022-10-31T05:28:26.251Z,48.04
2022-10-31T05:28:49.684Z,48.04
2022-10-31T05:29:11.334Z,47.89
2022-10-31T05:29:34.339Z,47.98
2022-10-31T05:29:56.517Z,47.73
2022-10-31T05:30:20.987Z,47.92
2022-10-31T05:30:43.555Z,47.90
2022-10-31T05:31:10.423Z,47.52
2022-10-31T05:31:32.008Z,47.85
2022-10-31T05:31:53.737Z,47.62
2022-10-31T05:32:39.372Z,47.73
2022-10-31T05:33:19.395Z,47.87
2022-10-31T05:34:01.959Z,48.00